createdAt,value
2019-05-14T00:03:51.447Z,0.93
2019-05-14T00:08:53.339Z,0.80
2019-05-14T00:13:55.558Z,1.00
2019-05-14T00:18:57.979Z,0.97
2019-05-14T00:24:01.834Z,0.77
2019-05-14T00:29:04.812Z,0.97
2019-05-14T00:34:07.237Z,1.00
2019-05-14T00:39:11.221Z,0.70
2019-05-14T00:44:13.678Z,0.90
2019-05-14T00:49:16.024Z,0.70
2019-05-14T00:54:18.173Z,0.90
2019-05-14T00:59:21.640Z,0.90
2019-05-14T01:04:24.015Z,0.73
2019-05-14T01:09:26.211Z,1.05
2019-05-14T01:14:28.294Z,0.90
2019-05-14T01:19:31.589Z,0.83
2019-05-14T01:24:33.910Z,0.83
2019-05-14T01:29:37.152Z,0.60
2019-05-14T01:34:41.683Z,0.80
2019-05-14T01:39:43.578Z,0.82
2019-05-14T01:44:45.715Z,0.90
2019-05-14T01:49:47.730Z,0.70
2019-05-14T01:54:51.522Z,0.90
2019-05-14T01:59:53.863Z,0.93
2019-05-14T02:04:56.044Z,0.90
2019-05-14T02:09:58.033Z,0.90
2019-05-14T02:15:01.920Z,0.70
2019-05-14T02:20:05.145Z,0.90
2019-05-14T02:25:07.949Z,1.00
2019-05-14T02:30:10.332Z,0.83
2019-05-14T02:35:12.770Z,1.07
2019-05-14T02:40:14.958Z,1.00
2019-05-14T02:45:19.829Z,1.10
2019-05-14T02:50:21.301Z,0.90
2019-05-14T02:55:23.563Z,1.10
2019-05-14T03:00:25.766Z,0.97
2019-05-14T03:05:29.552Z,1.10
2019-05-14T03:10:32.057Z,1.23
2019-05-14T03:15:34.287Z,1.40
2019-05-14T03:20:38.967Z,1.30
2019-05-14T03:25:40.693Z,1.10
2019-05-14T03:30:44.398Z,1.33
2019-05-14T03:38:52.991Z,1.60
2019-05-14T03:43:55.195Z,1.50
2019-05-14T03:49:00.051Z,1.70
2019-05-14T03:54:07.119Z,1.50
2019-05-14T03:59:09.239Z,1.73
2019-05-14T04:04:10.530Z,1.40
2019-05-14T04:09:13.709Z,1.90
2019-05-14T04:14:20.101Z,1.80
2019-05-14T04:19:23.654Z,2.10
2019-05-14T04:24:29.785Z,1.70
2019-05-14T04:29:34.158Z,2.10
2019-05-14T04:34:39.374Z,2.00
2019-05-14T04:39:40.503Z,2.10
2019-05-14T04:44:42.834Z,2.70
2019-05-14T04:49:44.926Z,2.10
2019-05-14T04:54:49.939Z,2.00
2019-05-14T04:59:51.104Z,2.27
2019-05-14T05:04:53.119Z,2.00
2019-05-14T05:09:55.149Z,1.70
2019-05-14T05:14:58.610Z,2.10
2019-05-14T05:20:00.835Z,2.27
2019-05-14T05:25:03.198Z,1.80
2019-05-14T05:30:05.598Z,2.20
2019-05-14T05:35:09.651Z,2.30
2019-05-14T05:40:12.412Z,2.37
2019-05-14T05:45:14.945Z,1.40
2019-05-14T05:50:19.328Z,1.50
2019-05-14T05:55:21.556Z,2.10
2019-05-14T06:00:34.384Z,2.00
2019-05-14T06:05:44.440Z,1.60
2019-05-14T06:10:48.951Z,1.63
2019-05-14T06:15:52.313Z,1.43
2019-05-14T06:20:54.757Z,1.80
2019-05-14T06:25:59.709Z,1.50
2019-05-14T06:31:01.187Z,1.50
2019-05-14T06:36:03.301Z,1.60
2019-05-14T06:41:05.457Z,1.00
2019-05-14T06:46:09.183Z,1.00
2019-05-14T06:51:12.460Z,1.37
2019-05-14T06:56:17.769Z,1.50
2019-05-14T07:01:18.825Z,1.30
2019-05-14T07:06:20.989Z,1.97
2019-05-14T07:11:24.365Z,2.10
2019-05-14T07:16:28.740Z,1.40
2019-05-14T07:21:30.516Z,1.87
2019-05-14T07:26:32.920Z,1.10
2019-05-14T07:31:35.019Z,1.20
2019-05-14T07:36:38.663Z,1.70
2019-05-14T07:41:40.918Z,1.97
2019-05-14T07:46:43.054Z,1.17
2019-05-14T07:51:45.158Z,2.23
2019-05-14T07:56:50.880Z,1.90
2019-05-14T08:01:51.634Z,1.47
2019-05-14T08:06:53.936Z,1.53
2019-05-14T08:11:58.557Z,1.97
2019-05-14T08:17:00.419Z,1.60
2019-05-14T08:22:02.615Z,1.60
2019-05-14T08:27:05.813Z,1.47
2019-05-14T08:32:08.803Z,1.60
2019-05-14T08:37:11.248Z,1.80
2019-05-14T08:42:13.356Z,0.87
2019-05-14T08:47:18.330Z,1.03
2019-05-14T08:52:20.569Z,1.20
2019-05-14T08:57:22.702Z,1.27
2019-05-14T09:02:25.034Z,0.50
2019-05-14T09:07:28.955Z,0.83
2019-05-14T09:12:31.027Z,1.10
2019-05-14T09:17:33.260Z,1.10
2019-05-14T09:22:36.097Z,1.17
2019-05-14T09:27:38.897Z,1.10
2019-05-14T09:32:41.062Z,0.47
2019-05-14T09:37:43.104Z,0.60
2019-05-14T09:42:45.218Z,1.20
2019-05-14T09:47:50.402Z,1.00
2019-05-14T09:52:51.409Z,0.70
2019-05-14T09:57:53.525Z,1.37
2019-05-14T10:02:55.696Z,0.43
2019-05-14T10:07:59.416Z,0.40
2019-05-14T10:13:02.021Z,1.00
2019-05-14T10:18:05.666Z,1.23
2019-05-14T10:23:09.376Z,1.20
2019-05-14T10:28:11.722Z,1.00
2019-05-14T10:33:14.898Z,1.30
2019-05-14T10:38:19.020Z,1.70
2019-05-14T10:43:21.363Z,0.90
2019-05-14T10:48:23.554Z,1.10
2019-05-14T10:53:28.659Z,1.13
2019-05-14T10:58:29.724Z,0.77
2019-05-14T11:03:31.947Z,1.00
2019-05-14T11:08:33.956Z,0.90
2019-05-14T11:13:36.178Z,1.07
2019-05-14T11:18:40.004Z,1.10
2019-05-14T11:23:43.254Z,0.87
2019-05-14T11:28:45.379Z,0.73
2019-05-14T11:33:49.637Z,0.80
2019-05-14T11:38:52.130Z,0.70
2019-05-14T11:43:54.380Z,0.67
2019-05-14T11:48:59.198Z,0.77
2019-05-14T11:54:00.511Z,1.00
2019-05-14T11:59:02.781Z,1.20
2019-05-14T12:04:08.697Z,1.30
2019-05-14T12:09:11.796Z,1.13
2019-05-14T12:14:14.097Z,1.40
2019-05-14T12:19:18.675Z,1.07
2019-05-14T12:24:20.322Z,0.97
2019-05-14T12:29:22.344Z,1.17
2019-05-14T12:34:29.275Z,0.67
2019-05-14T12:39:31.417Z,0.60
2019-05-14T12:44:37.214Z,0.67
2019-05-14T12:49:39.333Z,0.70
2019-05-14T12:54:41.438Z,0.77
2019-05-14T12:59:43.788Z,1.13
2019-05-14T13:04:48.626Z,1.00
2019-05-14T13:09:50.888Z,0.60
2019-05-14T13:14:52.906Z,0.57
2019-05-14T13:19:56.174Z,0.40
2019-05-14T13:24:58.302Z,0.70
2019-05-14T13:30:00.345Z,1.00
2019-05-14T13:35:02.912Z,0.73
2019-05-14T13:40:05.581Z,1.57
2019-05-14T13:45:10.363Z,0.60
2019-05-14T13:50:12.682Z,0.60
2019-05-14T13:55:15.484Z,0.60
2019-05-14T14:00:19.891Z,0.50
2019-05-14T14:05:21.735Z,0.80
2019-05-14T14:10:24.015Z,0.90
2019-05-14T14:15:28.733Z,0.87
2019-05-14T14:20:30.291Z,0.63
2019-05-14T14:25:32.517Z,0.77
2019-05-14T14:30:34.627Z,0.60
2019-05-14T14:35:38.785Z,0.40
2019-05-14T14:40:40.884Z,0.30
2019-05-14T14:45:45.242Z,0.60
2019-05-14T14:50:49.667Z,0.40
2019-05-14T14:55:51.188Z,0.40
2019-05-14T15:01:00.335Z,0.40
2019-05-14T15:06:02.551Z,0.30
2019-05-14T15:11:04.651Z,1.97
2019-05-14T15:16:12.831Z,0.43
2019-05-14T15:21:11.084Z,0.47
2019-05-14T15:26:13.581Z,0.30
2019-05-14T15:31:15.688Z,0.40
2019-05-14T15:36:19.695Z,0.47
2019-05-14T15:41:22.256Z,0.40
2019-05-14T15:46:24.421Z,0.60
2019-05-14T15:51:28.503Z,0.50
2019-05-14T15:56:30.431Z,0.33
2019-05-14T16:01:32.470Z,0.60
2019-05-14T16:06:34.519Z,0.60
2019-05-14T16:11:36.503Z,1.00
2019-05-14T16:16:39.183Z,0.63
2019-05-14T16:21:41.628Z,0.77
2019-05-14T16:26:43.917Z,0.53
2019-05-14T16:31:48.567Z,0.60
2019-05-14T16:36:50.236Z,0.30
2019-05-14T16:41:52.238Z,1.33
2019-05-14T16:46:54.263Z,1.20
2019-05-14T16:51:59.393Z,0.40
2019-05-14T16:57:00.248Z,0.70
2019-05-14T17:02:02.444Z,0.67
2019-05-14T17:07:04.734Z,0.70
2019-05-14T17:12:08.524Z,0.70
2019-05-14T17:17:10.878Z,0.70
2019-05-14T17:22:25.432Z,0.70
2019-05-14T17:27:17.273Z,0.80
2019-05-14T17:32:19.463Z,0.40
2019-05-14T17:37:23.961Z,0.53
2019-05-14T17:42:28.351Z,0.63
2019-05-14T17:47:30.614Z,0.70
2019-05-14T17:52:32.593Z,0.47
2019-05-14T17:57:35.919Z,0.63
2019-05-14T18:02:38.958Z,0.80
2019-05-14T18:07:41.359Z,0.50
2019-05-14T18:12:43.785Z,0.60
2019-05-14T18:17:46.001Z,1.10
2019-05-14T18:22:48.704Z,0.70
2019-05-14T18:27:50.832Z,0.93
2019-05-14T18:32:54.234Z,0.90
2019-05-14T18:37:56.343Z,0.70
2019-05-14T18:42:59.346Z,0.70
2019-05-14T18:48:01.515Z,0.60
2019-05-14T18:53:03.618Z,0.90
2019-05-14T18:58:08.427Z,0.50
2019-05-14T19:03:10.585Z,0.40
2019-05-14T19:08:12.744Z,0.63
2019-05-14T19:13:14.977Z,0.67
2019-05-14T19:18:19.151Z,0.80
2019-05-14T19:23:21.060Z,0.50
2019-05-14T19:28:23.167Z,0.57
2019-05-14T19:33:25.260Z,0.80
2019-05-14T19:38:27.384Z,0.70
2019-05-14T19:43:29.575Z,0.80
2019-05-14T19:48:33.020Z,0.70
2019-05-14T19:53:35.172Z,0.60
2019-05-14T19:58:38.433Z,0.50
2019-05-14T20:03:40.816Z,0.73
2019-05-14T20:08:43.021Z,0.77
2019-05-14T20:13:45.111Z,0.50
2019-05-14T20:18:48.737Z,0.80
2019-05-14T20:23:51.047Z,0.63
2019-05-14T20:28:53.149Z,0.40
2019-05-14T20:33:55.162Z,0.50
2019-05-14T20:38:58.934Z,0.67
2019-05-14T20:44:01.355Z,0.70
2019-05-14T20:49:03.686Z,1.20
2019-05-14T20:54:05.869Z,0.70
2019-05-14T20:59:08.366Z,0.70
2019-05-14T21:04:10.773Z,0.90
2019-05-14T21:09:13.332Z,0.80
2019-05-14T21:14:18.151Z,0.90
2019-05-14T21:19:19.827Z,0.67
2019-05-14T21:24:22.190Z,0.57
2019-05-14T21:29:24.355Z,0.60
2019-05-14T21:34:28.220Z,0.70
2019-05-14T21:39:30.478Z,0.90
2019-05-14T21:44:32.538Z,0.80
2019-05-14T21:49:34.621Z,0.70
2019-05-14T21:54:39.286Z,0.57
2019-05-14T21:59:40.968Z,0.70
2019-05-14T22:04:42.973Z,0.60
2019-05-14T22:09:45.488Z,1.03
2019-05-14T22:14:48.202Z,0.60
2019-05-14T22:19:50.411Z,0.77
2019-05-14T22:24:52.495Z,0.67
2019-05-14T22:29:54.620Z,0.90
2019-05-14T22:34:58.572Z,1.00
2019-05-14T22:40:00.931Z,0.93
2019-05-14T22:45:03.857Z,0.90
2019-05-14T22:50:08.523Z,0.80
2019-05-14T22:55:10.710Z,0.83
2019-05-14T23:00:13.159Z,0.90
2019-05-14T23:05:19.088Z,0.60
2019-05-14T23:10:21.091Z,1.00
2019-05-14T23:15:24.500Z,0.70
2019-05-14T23:20:28.986Z,0.60
2019-05-14T23:25:30.456Z,0.83
2019-05-14T23:30:32.999Z,0.80
2019-05-14T23:35:35.368Z,1.00
2019-05-14T23:40:38.735Z,1.13
2019-05-14T23:45:41.157Z,0.50
2019-05-14T23:50:43.220Z,0.80
2019-05-14T23:55:45.244Z,0.80
